sensor_id;sensor_type;location;lat;lon;timestamp;P1;durP1;ratioP1;P2;durP2;ratioP2
10847;SDS011;5477;48.806;9.154;2024-03-02T00:01:20;11.90;;;7.73;;
10847;SDS011;5477;48.806;9.154;2024-03-02T00:03:49;9.43;;;7.63;;
10847;SDS011;5477;48.806;9.154;2024-03-02T00:06:19;10.17;;;7.97;;
10847;SDS011;5477;48.806;9.154;2024-03-02T00:08:49;11.33;;;8.27;;
10847;SDS011;5477;48.806;9.154;2024-03-02T00:11:17;10.37;;;8.30;;
10847;SDS011;5477;48.806;9.154;2024-03-02T00:13:45;12.87;;;8.57;;
10847;SDS011;5477;48.806;9.154;2024-03-02T00:16:13;11.23;;;8.70;;
10847;SDS011;5477;48.806;9.154;2024-03-02T00:18:42;10.43;;;8.43;;
10847;SDS011;5477;48.806;9.154;2024-03-02T00:21:10;12.50;;;8.73;;
10847;SDS011;5477;48.806;9.154;2024-03-02T00:23:41;11.57;;;9.30;;
10847;SDS011;5477;48.806;9.154;2024-03-02T00:26:10;11.43;;;8.50;;
10847;SDS011;5477;48.806;9.154;2024-03-02T00:28:39;10.70;;;8.57;;
10847;SDS011;5477;48.806;9.154;2024-03-02T00:31:10;10.93;;;8.80;;
10847;SDS011;5477;48.806;9.154;2024-03-02T00:33:41;10.60;;;8.50;;
10847;SDS011;5477;48.806;9.154;2024-03-02T00:36:10;12.37;;;8.30;;
10847;SDS011;5477;48.806;9.154;2024-03-02T00:38:46;10.00;;;7.87;;
10847;SDS011;5477;48.806;9.154;2024-03-02T00:41:19;10.73;;;7.80;;
10847;SDS011;5477;48.806;9.154;2024-03-02T00:43:57;10.47;;;8.27;;
10847;SDS011;5477;48.806;9.154;2024-03-02T00:46:27;11.67;;;8.60;;
10847;SDS011;5477;48.806;9.154;2024-03-02T00:49:02;10.23;;;8.00;;
10847;SDS011;5477;48.806;9.154;2024-03-02T00:51:31;11.50;;;8.53;;
10847;SDS011;5477;48.806;9.154;2024-03-02T00:54:01;9.97;;;8.07;;
10847;SDS011;5477;48.806;9.154;2024-03-02T00:56:32;13.93;;;8.77;;
10847;SDS011;5477;48.806;9.154;2024-03-02T00:59:01;10.57;;;7.93;;
10847;SDS011;5477;48.806;9.154;2024-03-02T01:01:30;10.73;;;8.40;;
10847;SDS011;5477;48.806;9.154;2024-03-02T01:03:58;10.77;;;8.17;;
10847;SDS011;5477;48.806;9.154;2024-03-02T01:06:26;9.40;;;7.73;;
10847;SDS011;5477;48.806;9.154;2024-03-02T01:08:54;9.93;;;8.03;;
10847;SDS011;5477;48.806;9.154;2024-03-02T01:11:22;10.80;;;7.93;;
10847;SDS011;5477;48.806;9.154;2024-03-02T01:13:51;9.83;;;7.70;;
10847;SDS011;5477;48.806;9.154;2024-03-02T01:16:19;9.93;;;8.47;;
10847;SDS011;5477;48.806;9.154;2024-03-02T01:18:47;10.73;;;7.87;;
10847;SDS011;5477;48.806;9.154;2024-03-02T01:21:16;10.40;;;7.97;;
10847;SDS011;5477;48.806;9.154;2024-03-02T01:23:44;10.73;;;8.23;;
10847;SDS011;5477;48.806;9.154;2024-03-02T01:26:12;11.17;;;8.63;;
10847;SDS011;5477;48.806;9.154;2024-03-02T01:28:40;10.87;;;8.17;;
10847;SDS011;5477;48.806;9.154;2024-03-02T01:31:09;13.10;;;8.50;;
10847;SDS011;5477;48.806;9.154;2024-03-02T01:33:37;11.13;;;8.13;;
10847;SDS011;5477;48.806;9.154;2024-03-02T01:36:05;9.50;;;7.70;;
10847;SDS011;5477;48.806;9.154;2024-03-02T01:38:35;11.50;;;8.03;;
10847;SDS011;5477;48.806;9.154;2024-03-02T01:41:03;10.43;;;7.57;;
10847;SDS011;5477;48.806;9.154;2024-03-02T01:43:31;10.47;;;7.43;;
10847;SDS011;5477;48.806;9.154;2024-03-02T01:45:59;9.47;;;7.27;;
10847;SDS011;5477;48.806;9.154;2024-03-02T01:48:28;9.33;;;7.03;;
10847;SDS011;5477;48.806;9.154;2024-03-02T01:50:56;9.20;;;7.63;;
10847;SDS011;5477;48.806;9.154;2024-03-02T01:53:24;8.47;;;7.03;;
10847;SDS011;5477;48.806;9.154;2024-03-02T01:55:53;9.33;;;7.53;;
10847;SDS011;5477;48.806;9.154;2024-03-02T01:58:21;8.17;;;6.43;;
10847;SDS011;5477;48.806;9.154;2024-03-02T02:00:49;10.43;;;7.40;;
10847;SDS011;5477;48.806;9.154;2024-03-02T02:03:17;9.50;;;6.80;;
10847;SDS011;5477;48.806;9.154;2024-03-02T02:05:47;9.13;;;7.27;;
10847;SDS011;5477;48.806;9.154;2024-03-02T02:08:15;9.87;;;8.03;;
10847;SDS011;5477;48.806;9.154;2024-03-02T02:10:43;10.70;;;7.90;;
10847;SDS011;5477;48.806;9.154;2024-03-02T02:13:12;9.00;;;7.00;;
10847;SDS011;5477;48.806;9.154;2024-03-02T02:15:40;9.73;;;7.10;;
10847;SDS011;5477;48.806;9.154;2024-03-02T02:18:08;10.90;;;7.43;;
10847;SDS011;5477;48.806;9.154;2024-03-02T02:20:36;12.23;;;7.77;;
10847;SDS011;5477;48.806;9.154;2024-03-02T02:23:05;9.00;;;7.33;;
10847;SDS011;5477;48.806;9.154;2024-03-02T02:25:36;8.87;;;6.93;;
10847;SDS011;5477;48.806;9.154;2024-03-02T02:28:04;10.27;;;7.60;;
10847;SDS011;5477;48.806;9.154;2024-03-02T02:30:32;9.27;;;7.00;;
10847;SDS011;5477;48.806;9.154;2024-03-02T02:33:01;9.60;;;7.07;;
10847;SDS011;5477;48.806;9.154;2024-03-02T02:35:29;8.47;;;7.03;;
10847;SDS011;5477;48.806;9.154;2024-03-02T02:37:57;9.73;;;7.43;;
10847;SDS011;5477;48.806;9.154;2024-03-02T02:40:27;9.33;;;7.00;;
10847;SDS011;5477;48.806;9.154;2024-03-02T02:42:56;9.23;;;7.30;;
10847;SDS011;5477;48.806;9.154;2024-03-02T02:45:25;10.90;;;7.83;;
10847;SDS011;5477;48.806;9.154;2024-03-02T02:47:53;10.73;;;7.57;;
10847;SDS011;5477;48.806;9.154;2024-03-02T02:50:21;8.70;;;7.07;;
10847;SDS011;5477;48.806;9.154;2024-03-02T02:52:49;7.77;;;6.57;;
10847;SDS011;5477;48.806;9.154;2024-03-02T02:55:17;9.37;;;6.60;;
10847;SDS011;5477;48.806;9.154;2024-03-02T02:57:47;10.77;;;6.87;;
10847;SDS011;5477;48.806;9.154;2024-03-02T03:00:15;8.77;;;6.80;;
10847;SDS011;5477;48.806;9.154;2024-03-02T03:02:47;10.33;;;6.80;;
10847;SDS011;5477;48.806;9.154;2024-03-02T03:05:17;11.07;;;7.43;;
10847;SDS011;5477;48.806;9.154;2024-03-02T03:07:45;9.37;;;7.23;;
10847;SDS011;5477;48.806;9.154;2024-03-02T03:10:17;9.80;;;7.43;;
10847;SDS011;5477;48.806;9.154;2024-03-02T03:12:49;9.47;;;7.30;;
10847;SDS011;5477;48.806;9.154;2024-03-02T03:15:18;8.87;;;6.87;;
10847;SDS011;5477;48.806;9.154;2024-03-02T03:17:46;9.73;;;6.10;;
10847;SDS011;5477;48.806;9.154;2024-03-02T03:20:14;9.43;;;6.50;;
10847;SDS011;5477;48.806;9.154;2024-03-02T03:22:42;9.83;;;6.93;;
10847;SDS011;5477;48.806;9.154;2024-03-02T03:25:10;9.40;;;6.60;;
10847;SDS011;5477;48.806;9.154;2024-03-02T03:27:38;9.20;;;6.37;;
10847;SDS011;5477;48.806;9.154;2024-03-02T03:30:10;9.60;;;6.70;;
10847;SDS011;5477;48.806;9.154;2024-03-02T03:32:38;10.73;;;6.97;;
10847;SDS011;5477;48.806;9.154;2024-03-02T03:35:07;9.30;;;6.80;;
10847;SDS011;5477;48.806;9.154;2024-03-02T03:37:35;15.03;;;7.67;;
10847;SDS011;5477;48.806;9.154;2024-03-02T03:40:03;11.83;;;8.07;;
10847;SDS011;5477;48.806;9.154;2024-03-02T03:42:37;10.77;;;7.70;;
10847;SDS011;5477;48.806;9.154;2024-03-02T03:45:05;10.30;;;7.87;;
10847;SDS011;5477;48.806;9.154;2024-03-02T03:47:35;8.83;;;7.00;;
10847;SDS011;5477;48.806;9.154;2024-03-02T03:50:04;8.20;;;6.63;;
10847;SDS011;5477;48.806;9.154;2024-03-02T03:52:33;8.80;;;6.87;;
10847;SDS011;5477;48.806;9.154;2024-03-02T03:55:01;10.70;;;7.33;;
10847;SDS011;5477;48.806;9.154;2024-03-02T03:57:32;9.17;;;6.60;;
10847;SDS011;5477;48.806;9.154;2024-03-02T04:00:00;10.63;;;6.93;;
10847;SDS011;5477;48.806;9.154;2024-03-02T04:02:38;8.63;;;6.77;;
10847;SDS011;5477;48.806;9.154;2024-03-02T04:05:07;9.20;;;7.20;;
10847;SDS011;5477;48.806;9.154;2024-03-02T04:07:37;9.57;;;6.97;;
10847;SDS011;5477;48.806;9.154;2024-03-02T04:10:07;9.50;;;7.03;;
10847;SDS011;5477;48.806;9.154;2024-03-02T04:12:36;9.03;;;7.17;;
10847;SDS011;5477;48.806;9.154;2024-03-02T04:15:04;9.63;;;6.97;;
10847;SDS011;5477;48.806;9.154;2024-03-02T04:17:33;9.40;;;6.83;;
10847;SDS011;5477;48.806;9.154;2024-03-02T04:20:04;10.53;;;7.10;;
10847;SDS011;5477;48.806;9.154;2024-03-02T04:22:33;10.73;;;7.33;;
10847;SDS011;5477;48.806;9.154;2024-03-02T04:25:02;10.40;;;7.43;;
10847;SDS011;5477;48.806;9.154;2024-03-02T04:27:31;9.43;;;6.93;;
10847;SDS011;5477;48.806;9.154;2024-03-02T04:30:00;10.50;;;7.17;;
10847;SDS011;5477;48.806;9.154;2024-03-02T04:32:28;11.73;;;7.67;;
10847;SDS011;5477;48.806;9.154;2024-03-02T04:34:56;10.93;;;8.47;;
10847;SDS011;5477;48.806;9.154;2024-03-02T04:37:25;11.37;;;8.53;;
10847;SDS011;5477;48.806;9.154;2024-03-02T04:39:53;12.17;;;8.47;;
10847;SDS011;5477;48.806;9.154;2024-03-02T04:42:21;13.13;;;9.37;;
10847;SDS011;5477;48.806;9.154;2024-03-02T04:44:51;12.63;;;8.40;;
10847;SDS011;5477;48.806;9.154;2024-03-02T04:47:19;11.83;;;8.40;;
10847;SDS011;5477;48.806;9.154;2024-03-02T04:49:47;12.67;;;8.93;;
10847;SDS011;5477;48.806;9.154;2024-03-02T04:52:15;11.87;;;8.63;;
10847;SDS011;5477;48.806;9.154;2024-03-02T04:54:44;12.87;;;8.93;;
10847;SDS011;5477;48.806;9.154;2024-03-02T04:57:33;12.87;;;9.50;;
10847;SDS011;5477;48.806;9.154;2024-03-02T05:00:01;13.00;;;9.13;;
10847;SDS011;5477;48.806;9.154;2024-03-02T05:02:33;12.07;;;9.03;;
10847;SDS011;5477;48.806;9.154;2024-03-02T05:05:01;13.77;;;8.67;;
10847;SDS011;5477;48.806;9.154;2024-03-02T05:07:29;13.57;;;9.43;;
10847;SDS011;5477;48.806;9.154;2024-03-02T05:09:59;14.40;;;9.03;;
10847;SDS011;5477;48.806;9.154;2024-03-02T05:12:27;12.03;;;7.90;;
10847;SDS011;5477;48.806;9.154;2024-03-02T05:15:22;13.63;;;8.80;;
10847;SDS011;5477;48.806;9.154;2024-03-02T05:17:50;13.00;;;9.00;;
10847;SDS011;5477;48.806;9.154;2024-03-02T05:20:19;13.30;;;8.70;;
10847;SDS011;5477;48.806;9.154;2024-03-02T05:22:47;11.87;;;8.63;;
10847;SDS011;5477;48.806;9.154;2024-03-02T05:25:17;12.67;;;8.57;;
10847;SDS011;5477;48.806;9.154;2024-03-02T05:27:45;14.70;;;9.10;;
10847;SDS011;5477;48.806;9.154;2024-03-02T05:30:13;13.77;;;9.37;;
10847;SDS011;5477;48.806;9.154;2024-03-02T05:32:42;14.27;;;9.77;;
10847;SDS011;5477;48.806;9.154;2024-03-02T05:35:10;13.03;;;8.90;;
10847;SDS011;5477;48.806;9.154;2024-03-02T05:37:39;13.47;;;8.90;;
10847;SDS011;5477;48.806;9.154;2024-03-02T05:40:07;11.50;;;8.47;;
10847;SDS011;5477;48.806;9.154;2024-03-02T05:42:39;11.70;;;8.27;;
10847;SDS011;5477;48.806;9.154;2024-03-02T05:45:08;12.63;;;8.37;;
10847;SDS011;5477;48.806;9.154;2024-03-02T05:47:36;13.20;;;8.77;;
10847;SDS011;5477;48.806;9.154;2024-03-02T05:50:05;13.23;;;8.67;;
10847;SDS011;5477;48.806;9.154;2024-03-02T05:52:33;12.70;;;8.87;;
10847;SDS011;5477;48.806;9.154;2024-03-02T05:55:02;13.07;;;9.00;;
10847;SDS011;5477;48.806;9.154;2024-03-02T05:57:31;12.20;;;8.47;;
10847;SDS011;5477;48.806;9.154;2024-03-02T06:00:13;13.77;;;8.87;;
10847;SDS011;5477;48.806;9.154;2024-03-02T06:02:43;14.37;;;9.00;;
10847;SDS011;5477;48.806;9.154;2024-03-02T06:05:11;14.30;;;8.77;;
10847;SDS011;5477;48.806;9.154;2024-03-02T06:07:40;13.70;;;8.77;;
10847;SDS011;5477;48.806;9.154;2024-03-02T06:10:08;13.73;;;8.77;;
10847;SDS011;5477;48.806;9.154;2024-03-02T06:12:40;13.27;;;8.43;;
10847;SDS011;5477;48.806;9.154;2024-03-02T06:15:08;9.53;;;7.57;;
10847;SDS011;5477;48.806;9.154;2024-03-02T06:17:38;12.37;;;8.17;;
10847;SDS011;5477;48.806;9.154;2024-03-02T06:20:06;11.43;;;8.20;;
10847;SDS011;5477;48.806;9.154;2024-03-02T06:22:35;11.77;;;8.23;;
10847;SDS011;5477;48.806;9.154;2024-03-02T06:25:04;12.23;;;8.33;;
10847;SDS011;5477;48.806;9.154;2024-03-02T06:27:32;11.90;;;8.80;;
10847;SDS011;5477;48.806;9.154;2024-03-02T06:30:00;12.30;;;8.70;;
10847;SDS011;5477;48.806;9.154;2024-03-02T06:32:30;12.30;;;9.07;;
10847;SDS011;5477;48.806;9.154;2024-03-02T06:34:59;13.63;;;8.90;;
10847;SDS011;5477;48.806;9.154;2024-03-02T06:37:27;12.97;;;8.47;;
10847;SDS011;5477;48.806;9.154;2024-03-02T06:39:55;12.17;;;8.43;;
10847;SDS011;5477;48.806;9.154;2024-03-02T06:42:23;13.27;;;8.40;;
10847;SDS011;5477;48.806;9.154;2024-03-02T06:44:51;10.90;;;8.20;;
10847;SDS011;5477;48.806;9.154;2024-03-02T06:47:20;12.03;;;8.03;;
10847;SDS011;5477;48.806;9.154;2024-03-02T06:49:48;11.47;;;8.23;;
10847;SDS011;5477;48.806;9.154;2024-03-02T06:52:17;12.57;;;8.57;;
10847;SDS011;5477;48.806;9.154;2024-03-02T06:54:50;12.27;;;8.03;;
10847;SDS011;5477;48.806;9.154;2024-03-02T06:57:18;13.03;;;8.63;;
10847;SDS011;5477;48.806;9.154;2024-03-02T06:59:47;11.90;;;8.30;;
10847;SDS011;5477;48.806;9.154;2024-03-02T07:02:17;11.80;;;8.13;;
10847;SDS011;5477;48.806;9.154;2024-03-02T07:04:45;11.67;;;8.97;;
10847;SDS011;5477;48.806;9.154;2024-03-02T07:07:13;11.13;;;7.67;;
10847;SDS011;5477;48.806;9.154;2024-03-02T07:09:42;11.07;;;7.93;;
10847;SDS011;5477;48.806;9.154;2024-03-02T07:12:10;11.77;;;7.73;;
10847;SDS011;5477;48.806;9.154;2024-03-02T07:14:39;10.87;;;8.00;;
10847;SDS011;5477;48.806;9.154;2024-03-02T07:17:25;10.97;;;8.03;;
10847;SDS011;5477;48.806;9.154;2024-03-02T07:19:53;11.63;;;8.17;;
10847;SDS011;5477;48.806;9.154;2024-03-02T07:22:21;10.77;;;7.53;;
10847;SDS011;5477;48.806;9.154;2024-03-02T07:24:51;10.60;;;7.70;;
10847;SDS011;5477;48.806;9.154;2024-03-02T07:27:19;10.33;;;8.10;;
10847;SDS011;5477;48.806;9.154;2024-03-02T07:29:47;9.93;;;7.93;;
10847;SDS011;5477;48.806;9.154;2024-03-02T07:32:15;11.77;;;8.07;;
10847;SDS011;5477;48.806;9.154;2024-03-02T07:34:43;11.30;;;7.67;;
10847;SDS011;5477;48.806;9.154;2024-03-02T07:37:11;9.77;;;7.40;;
10847;SDS011;5477;48.806;9.154;2024-03-02T07:39:39;9.43;;;7.27;;
10847;SDS011;5477;48.806;9.154;2024-03-02T07:42:08;10.00;;;7.40;;
10847;SDS011;5477;48.806;9.154;2024-03-02T07:44:36;9.90;;;7.50;;
10847;SDS011;5477;48.806;9.154;2024-03-02T07:47:07;9.50;;;7.17;;
10847;SDS011;5477;48.806;9.154;2024-03-02T07:49:35;10.03;;;7.33;;
10847;SDS011;5477;48.806;9.154;2024-03-02T07:52:03;10.23;;;6.87;;
10847;SDS011;5477;48.806;9.154;2024-03-02T07:54:31;9.50;;;6.60;;
10847;SDS011;5477;48.806;9.154;2024-03-02T07:57:00;9.27;;;6.73;;
10847;SDS011;5477;48.806;9.154;2024-03-02T07:59:29;12.87;;;7.27;;
10847;SDS011;5477;48.806;9.154;2024-03-02T08:01:57;8.70;;;6.50;;
10847;SDS011;5477;48.806;9.154;2024-03-02T08:04:25;9.57;;;6.77;;
10847;SDS011;5477;48.806;9.154;2024-03-02T08:06:53;8.47;;;6.60;;
10847;SDS011;5477;48.806;9.154;2024-03-02T08:09:22;9.30;;;6.43;;
10847;SDS011;5477;48.806;9.154;2024-03-02T08:11:50;8.37;;;6.10;;
10847;SDS011;5477;48.806;9.154;2024-03-02T08:14:18;9.03;;;5.87;;
10847;SDS011;5477;48.806;9.154;2024-03-02T08:16:47;8.83;;;6.50;;
10847;SDS011;5477;48.806;9.154;2024-03-02T08:19:15;7.03;;;5.73;;
10847;SDS011;5477;48.806;9.154;2024-03-02T08:21:43;7.53;;;5.87;;
10847;SDS011;5477;48.806;9.154;2024-03-02T08:24:12;9.30;;;6.00;;
10847;SDS011;5477;48.806;9.154;2024-03-02T08:26:40;8.33;;;6.10;;
10847;SDS011;5477;48.806;9.154;2024-03-02T08:29:08;8.37;;;6.23;;
10847;SDS011;5477;48.806;9.154;2024-03-02T08:31:36;8.10;;;5.97;;
10847;SDS011;5477;48.806;9.154;2024-03-02T08:34:08;8.53;;;6.23;;
10847;SDS011;5477;48.806;9.154;2024-03-02T08:36:36;6.97;;;5.83;;
10847;SDS011;5477;48.806;9.154;2024-03-02T08:39:05;9.37;;;7.17;;
10847;SDS011;5477;48.806;9.154;2024-03-02T08:41:41;10.53;;;7.90;;
10847;SDS011;5477;48.806;9.154;2024-03-02T08:44:10;7.60;;;6.03;;
10847;SDS011;5477;48.806;9.154;2024-03-02T08:46:38;8.43;;;6.67;;
10847;SDS011;5477;48.806;9.154;2024-03-02T08:49:06;9.60;;;6.90;;
10847;SDS011;5477;48.806;9.154;2024-03-02T08:51:36;9.13;;;5.93;;
10847;SDS011;5477;48.806;9.154;2024-03-02T08:54:04;10.83;;;6.53;;
10847;SDS011;5477;48.806;9.154;2024-03-02T08:56:32;6.43;;;5.07;;
10847;SDS011;5477;48.806;9.154;2024-03-02T08:59:00;8.97;;;6.23;;
10847;SDS011;5477;48.806;9.154;2024-03-02T09:01:28;6.30;;;5.53;;
10847;SDS011;5477;48.806;9.154;2024-03-02T09:03:56;6.37;;;5.20;;
10847;SDS011;5477;48.806;9.154;2024-03-02T09:06:26;7.53;;;5.30;;
10847;SDS011;5477;48.806;9.154;2024-03-02T09:08:54;7.53;;;5.47;;
10847;SDS011;5477;48.806;9.154;2024-03-02T09:11:22;6.73;;;5.17;;
10847;SDS011;5477;48.806;9.154;2024-03-02T09:13:50;6.60;;;5.40;;
10847;SDS011;5477;48.806;9.154;2024-03-02T09:16:19;7.03;;;4.97;;
10847;SDS011;5477;48.806;9.154;2024-03-02T09:18:47;8.47;;;5.57;;
10847;SDS011;5477;48.806;9.154;2024-03-02T09:21:15;8.77;;;5.07;;
10847;SDS011;5477;48.806;9.154;2024-03-02T09:23:44;6.30;;;4.97;;
10847;SDS011;5477;48.806;9.154;2024-03-02T09:26:14;6.90;;;5.00;;
10847;SDS011;5477;48.806;9.154;2024-03-02T09:28:43;5.40;;;4.60;;
10847;SDS011;5477;48.806;9.154;2024-03-02T09:31:11;5.20;;;4.13;;
10847;SDS011;5477;48.806;9.154;2024-03-02T09:33:39;7.27;;;4.83;;
10847;SDS011;5477;48.806;9.154;2024-03-02T09:36:16;5.23;;;4.40;;
10847;SDS011;5477;48.806;9.154;2024-03-02T09:38:46;5.53;;;4.37;;
10847;SDS011;5477;48.806;9.154;2024-03-02T09:41:14;7.23;;;4.57;;
10847;SDS011;5477;48.806;9.154;2024-03-02T09:43:42;6.37;;;3.70;;
10847;SDS011;5477;48.806;9.154;2024-03-02T09:46:11;5.33;;;4.43;;
10847;SDS011;5477;48.806;9.154;2024-03-02T09:48:39;5.77;;;4.30;;
10847;SDS011;5477;48.806;9.154;2024-03-02T09:51:07;5.33;;;3.90;;
10847;SDS011;5477;48.806;9.154;2024-03-02T09:53:36;4.77;;;4.27;;
10847;SDS011;5477;48.806;9.154;2024-03-02T09:56:06;5.07;;;4.17;;
10847;SDS011;5477;48.806;9.154;2024-03-02T09:58:33;5.37;;;4.20;;
10847;SDS011;5477;48.806;9.154;2024-03-02T10:01:02;6.37;;;4.90;;
10847;SDS011;5477;48.806;9.154;2024-03-02T10:03:33;5.53;;;4.27;;
10847;SDS011;5477;48.806;9.154;2024-03-02T10:06:20;6.07;;;3.93;;
10847;SDS011;5477;48.806;9.154;2024-03-02T10:08:49;5.20;;;4.10;;
10847;SDS011;5477;48.806;9.154;2024-03-02T10:11:28;3.90;;;3.40;;
10847;SDS011;5477;48.806;9.154;2024-03-02T10:14:05;3.40;;;2.80;;
10847;SDS011;5477;48.806;9.154;2024-03-02T10:16:35;4.73;;;3.77;;
10847;SDS011;5477;48.806;9.154;2024-03-02T10:19:16;3.63;;;3.33;;
10847;SDS011;5477;48.806;9.154;2024-03-02T10:21:46;5.60;;;2.97;;
10847;SDS011;5477;48.806;9.154;2024-03-02T10:24:15;5.47;;;3.50;;
10847;SDS011;5477;48.806;9.154;2024-03-02T10:26:45;4.23;;;3.50;;
10847;SDS011;5477;48.806;9.154;2024-03-02T10:29:13;5.10;;;4.60;;
10847;SDS011;5477;48.806;9.154;2024-03-02T10:31:42;8.47;;;4.83;;
10847;SDS011;5477;48.806;9.154;2024-03-02T10:34:12;5.50;;;4.60;;
10847;SDS011;5477;48.806;9.154;2024-03-02T10:36:42;7.10;;;4.87;;
10847;SDS011;5477;48.806;9.154;2024-03-02T10:39:11;5.83;;;4.50;;
10847;SDS011;5477;48.806;9.154;2024-03-02T10:41:41;6.00;;;4.57;;
10847;SDS011;5477;48.806;9.154;2024-03-02T10:44:12;5.80;;;4.50;;
10847;SDS011;5477;48.806;9.154;2024-03-02T10:46:40;4.13;;;3.73;;
10847;SDS011;5477;48.806;9.154;2024-03-02T10:49:08;4.57;;;3.93;;
10847;SDS011;5477;48.806;9.154;2024-03-02T10:51:36;4.97;;;4.47;;
10847;SDS011;5477;48.806;9.154;2024-03-02T10:54:04;6.17;;;4.20;;
10847;SDS011;5477;48.806;9.154;2024-03-02T10:56:33;5.40;;;4.50;;
10847;SDS011;5477;48.806;9.154;2024-03-02T10:59:06;4.27;;;3.80;;
10847;SDS011;5477;48.806;9.154;2024-03-02T11:01:44;5.03;;;3.90;;
10847;SDS011;5477;48.806;9.154;2024-03-02T11:04:15;6.13;;;4.17;;
10847;SDS011;5477;48.806;9.154;2024-03-02T11:06:46;6.23;;;5.50;;
10847;SDS011;5477;48.806;9.154;2024-03-02T11:09:18;4.83;;;3.87;;
10847;SDS011;5477;48.806;9.154;2024-03-02T11:11:49;5.73;;;4.00;;
10847;SDS011;5477;48.806;9.154;2024-03-02T11:14:24;5.23;;;4.03;;
10847;SDS011;5477;48.806;9.154;2024-03-02T11:16:52;4.37;;;3.93;;
10847;SDS011;5477;48.806;9.154;2024-03-02T11:19:21;4.17;;;3.23;;
10847;SDS011;5477;48.806;9.154;2024-03-02T11:21:51;5.07;;;3.70;;
10847;SDS011;5477;48.806;9.154;2024-03-02T11:24:30;4.13;;;3.50;;
10847;SDS011;5477;48.806;9.154;2024-03-02T11:27:05;4.07;;;3.13;;
10847;SDS011;5477;48.806;9.154;2024-03-02T11:32:21;3.50;;;3.20;;
10847;SDS011;5477;48.806;9.154;2024-03-02T11:34:50;4.00;;;3.13;;
10847;SDS011;5477;48.806;9.154;2024-03-02T11:37:19;4.50;;;3.43;;
10847;SDS011;5477;48.806;9.154;2024-03-02T11:39:48;3.27;;;2.60;;
10847;SDS011;5477;48.806;9.154;2024-03-02T11:42:17;2.97;;;2.53;;
10847;SDS011;5477;48.806;9.154;2024-03-02T11:44:46;3.47;;;2.27;;
10847;SDS011;5477;48.806;9.154;2024-03-02T11:47:17;2.80;;;2.13;;
10847;SDS011;5477;48.806;9.154;2024-03-02T11:49:45;3.53;;;2.40;;
10847;SDS011;5477;48.806;9.154;2024-03-02T11:52:16;3.87;;;2.40;;
10847;SDS011;5477;48.806;9.154;2024-03-02T11:54:45;3.23;;;2.27;;
10847;SDS011;5477;48.806;9.154;2024-03-02T11:57:15;2.30;;;1.83;;
10847;SDS011;5477;48.806;9.154;2024-03-02T11:59:44;3.70;;;2.07;;
10847;SDS011;5477;48.806;9.154;2024-03-02T12:02:14;3.20;;;1.63;;
10847;SDS011;5477;48.806;9.154;2024-03-02T12:04:45;4.27;;;1.90;;
10847;SDS011;5477;48.806;9.154;2024-03-02T12:07:18;1.73;;;1.60;;
10847;SDS011;5477;48.806;9.154;2024-03-02T12:09:48;2.50;;;1.60;;
10847;SDS011;5477;48.806;9.154;2024-03-02T12:12:16;1.50;;;1.23;;
10847;SDS011;5477;48.806;9.154;2024-03-02T12:14:50;1.40;;;1.10;;
10847;SDS011;5477;48.806;9.154;2024-03-02T12:17:19;2.00;;;1.47;;
10847;SDS011;5477;48.806;9.154;2024-03-02T12:19:48;1.33;;;1.20;;
10847;SDS011;5477;48.806;9.154;2024-03-02T12:22:16;3.00;;;1.60;;
10847;SDS011;5477;48.806;9.154;2024-03-02T12:24:44;1.60;;;1.20;;
10847;SDS011;5477;48.806;9.154;2024-03-02T12:27:12;1.60;;;1.30;;
10847;SDS011;5477;48.806;9.154;2024-03-02T12:29:44;1.30;;;1.00;;
10847;SDS011;5477;48.806;9.154;2024-03-02T12:32:12;1.87;;;1.40;;
10847;SDS011;5477;48.806;9.154;2024-03-02T12:34:40;1.27;;;0.93;;
10847;SDS011;5477;48.806;9.154;2024-03-02T12:37:12;0.73;;;0.73;;
10847;SDS011;5477;48.806;9.154;2024-03-02T12:39:44;0.80;;;0.80;;
10847;SDS011;5477;48.806;9.154;2024-03-02T12:42:12;1.20;;;0.90;;
10847;SDS011;5477;48.806;9.154;2024-03-02T12:44:40;0.80;;;0.80;;
10847;SDS011;5477;48.806;9.154;2024-03-02T12:47:08;1.07;;;0.80;;
10847;SDS011;5477;48.806;9.154;2024-03-02T12:49:36;1.33;;;0.87;;
10847;SDS011;5477;48.806;9.154;2024-03-02T12:52:04;0.70;;;0.70;;
10847;SDS011;5477;48.806;9.154;2024-03-02T12:54:34;1.20;;;1.10;;
10847;SDS011;5477;48.806;9.154;2024-03-02T12:57:02;1.33;;;1.00;;
10847;SDS011;5477;48.806;9.154;2024-03-02T12:59:30;1.63;;;0.90;;
10847;SDS011;5477;48.806;9.154;2024-03-02T13:01:58;1.10;;;1.00;;
10847;SDS011;5477;48.806;9.154;2024-03-02T13:04:27;1.70;;;1.10;;
10847;SDS011;5477;48.806;9.154;2024-03-02T13:06:57;1.23;;;1.00;;
10847;SDS011;5477;48.806;9.154;2024-03-02T13:09:25;2.27;;;1.50;;
10847;SDS011;5477;48.806;9.154;2024-03-02T13:11:55;1.20;;;1.10;;
10847;SDS011;5477;48.806;9.154;2024-03-02T13:14:23;1.93;;;1.33;;
10847;SDS011;5477;48.806;9.154;2024-03-02T13:16:52;1.23;;;1.00;;
10847;SDS011;5477;48.806;9.154;2024-03-02T13:19:20;1.97;;;1.30;;
10847;SDS011;5477;48.806;9.154;2024-03-02T13:21:48;1.63;;;1.00;;
10847;SDS011;5477;48.806;9.154;2024-03-02T13:24:18;1.20;;;1.10;;
10847;SDS011;5477;48.806;9.154;2024-03-02T13:26:46;1.20;;;1.10;;
10847;SDS011;5477;48.806;9.154;2024-03-02T13:29:15;1.30;;;1.20;;
10847;SDS011;5477;48.806;9.154;2024-03-02T13:31:44;3.33;;;2.27;;
10847;SDS011;5477;48.806;9.154;2024-03-02T13:34:13;3.17;;;1.30;;
10847;SDS011;5477;48.806;9.154;2024-03-02T13:36:41;1.30;;;1.10;;
10847;SDS011;5477;48.806;9.154;2024-03-02T13:39:09;1.50;;;1.20;;
10847;SDS011;5477;48.806;9.154;2024-03-02T13:41:37;2.03;;;1.30;;
10847;SDS011;5477;48.806;9.154;2024-03-02T13:44:05;1.37;;;1.27;;
10847;SDS011;5477;48.806;9.154;2024-03-02T13:46:35;1.20;;;1.10;;
10847;SDS011;5477;48.806;9.154;2024-03-02T13:49:03;2.53;;;1.70;;
10847;SDS011;5477;48.806;9.154;2024-03-02T13:51:31;1.60;;;1.10;;
10847;SDS011;5477;48.806;9.154;2024-03-02T13:53:59;1.80;;;1.30;;
10847;SDS011;5477;48.806;9.154;2024-03-02T13:56:29;2.23;;;1.23;;
10847;SDS011;5477;48.806;9.154;2024-03-02T13:58:58;2.67;;;1.27;;
10847;SDS011;5477;48.806;9.154;2024-03-02T14:01:26;3.00;;;1.10;;
10847;SDS011;5477;48.806;9.154;2024-03-02T14:03:56;1.50;;;1.10;;
10847;SDS011;5477;48.806;9.154;2024-03-02T14:06:24;1.47;;;1.20;;
10847;SDS011;5477;48.806;9.154;2024-03-02T14:08:53;1.73;;;1.37;;
10847;SDS011;5477;48.806;9.154;2024-03-02T14:11:21;1.53;;;1.43;;
10847;SDS011;5477;48.806;9.154;2024-03-02T14:13:49;2.13;;;1.20;;
10847;SDS011;5477;48.806;9.154;2024-03-02T14:16:20;1.90;;;1.40;;
10847;SDS011;5477;48.806;9.154;2024-03-02T14:18:48;3.20;;;1.33;;
10847;SDS011;5477;48.806;9.154;2024-03-02T14:21:18;1.35;;;1.10;;
10847;SDS011;5477;48.806;9.154;2024-03-02T14:23:46;2.58;;;1.27;;
10847;SDS011;5477;48.806;9.154;2024-03-02T14:26:14;1.20;;;1.10;;
10847;SDS011;5477;48.806;9.154;2024-03-02T14:28:42;1.38;;;1.20;;
10847;SDS011;5477;48.806;9.154;2024-03-02T14:31:17;1.50;;;1.30;;
10847;SDS011;5477;48.806;9.154;2024-03-02T14:33:46;1.58;;;1.40;;
10847;SDS011;5477;48.806;9.154;2024-03-02T14:36:14;1.63;;;1.10;;
10847;SDS011;5477;48.806;9.154;2024-03-02T14:38:43;1.30;;;1.20;;
10847;SDS011;5477;48.806;9.154;2024-03-02T14:41:12;1.55;;;1.30;;
10847;SDS011;5477;48.806;9.154;2024-03-02T14:43:40;2.92;;;1.30;;
10847;SDS011;5477;48.806;9.154;2024-03-02T14:46:08;2.47;;;1.30;;
10847;SDS011;5477;48.806;9.154;2024-03-02T14:48:36;1.77;;;1.30;;
10847;SDS011;5477;48.806;9.154;2024-03-02T14:51:05;1.50;;;1.40;;
10847;SDS011;5477;48.806;9.154;2024-03-02T14:53:33;1.73;;;1.10;;
10847;SDS011;5477;48.806;9.154;2024-03-02T14:56:03;1.83;;;1.48;;
10847;SDS011;5477;48.806;9.154;2024-03-02T14:58:32;1.80;;;1.50;;
10847;SDS011;5477;48.806;9.154;2024-03-02T15:01:02;1.80;;;1.30;;
10847;SDS011;5477;48.806;9.154;2024-03-02T15:03:31;1.40;;;1.30;;
10847;SDS011;5477;48.806;9.154;2024-03-02T15:05:59;1.35;;;1.10;;
10847;SDS011;5477;48.806;9.154;2024-03-02T15:08:27;1.20;;;1.10;;
10847;SDS011;5477;48.806;9.154;2024-03-02T15:10:55;1.55;;;1.20;;